Terminal Aerodrome Forecast
Issued by NWS

Home | Current Version | Previous Version | Text Only | Print | Product List | Glossary On
Versions: 1 2 3 4 5 6 7 8 9 10 11 12
858
FTUS43 KIND 261120
TAFHUF
TAF
KHUF 261120Z 2612/2712 00000KT P6SM SCT200
     FM261600 21004KT P6SM SCT045
     FM270000 VRB03KT P6SM SCT200
     FM271000 VRB03KT P6SM BKN090=

USA.gov is the U.S. government's official web portal to all federal, state and local government web resources and services.